sensor_id;sensor_type;location;lat;lon;timestamp;P1;durP1;ratioP1;P2;durP2;ratioP2
2187;SDS011;1100;52.014;8.540;2023-10-08T00:01:43;4.83;;;1.50;;
2187;SDS011;1100;52.014;8.540;2023-10-08T00:04:09;6.65;;;2.00;;
2187;SDS011;1100;52.014;8.540;2023-10-08T00:06:43;5.25;;;1.88;;
2187;SDS011;1100;52.014;8.540;2023-10-08T00:09:10;4.20;;;1.60;;
2187;SDS011;1100;52.014;8.540;2023-10-08T00:11:36;7.35;;;2.70;;
2187;SDS011;1100;52.014;8.540;2023-10-08T00:14:05;7.10;;;2.30;;
2187;SDS011;1100;52.014;8.540;2023-10-08T00:16:34;7.45;;;2.28;;
2187;SDS011;1100;52.014;8.540;2023-10-08T00:19:04;7.00;;;1.70;;
2187;SDS011;1100;52.014;8.540;2023-10-08T00:21:33;5.22;;;1.92;;
2187;SDS011;1100;52.014;8.540;2023-10-08T00:24:00;7.80;;;2.17;;
2187;SDS011;1100;52.014;8.540;2023-10-08T00:26:30;6.68;;;1.80;;
2187;SDS011;1100;52.014;8.540;2023-10-08T00:29:00;5.20;;;2.13;;
2187;SDS011;1100;52.014;8.540;2023-10-08T00:31:34;7.88;;;1.98;;
2187;SDS011;1100;52.014;8.540;2023-10-08T00:34:04;5.28;;;1.90;;
2187;SDS011;1100;52.014;8.540;2023-10-08T00:36:42;7.70;;;1.67;;
2187;SDS011;1100;52.014;8.540;2023-10-08T00:39:12;5.88;;;1.77;;
2187;SDS011;1100;52.014;8.540;2023-10-08T00:41:42;5.07;;;2.23;;
2187;SDS011;1100;52.014;8.540;2023-10-08T00:44:09;5.30;;;1.83;;
2187;SDS011;1100;52.014;8.540;2023-10-08T00:46:55;5.57;;;1.83;;
2187;SDS011;1100;52.014;8.540;2023-10-08T00:49:22;5.20;;;1.73;;
2187;SDS011;1100;52.014;8.540;2023-10-08T00:52:08;5.60;;;2.00;;
2187;SDS011;1100;52.014;8.540;2023-10-08T00:54:36;6.90;;;1.67;;
2187;SDS011;1100;52.014;8.540;2023-10-08T00:57:21;5.32;;;1.52;;
2187;SDS011;1100;52.014;8.540;2023-10-08T00:59:48;4.45;;;2.10;;
2187;SDS011;1100;52.014;8.540;2023-10-08T01:02:27;4.90;;;1.85;;
2187;SDS011;1100;52.014;8.540;2023-10-08T01:05:07;5.88;;;1.48;;
2187;SDS011;1100;52.014;8.540;2023-10-08T01:07:35;6.33;;;2.23;;
2187;SDS011;1100;52.014;8.540;2023-10-08T01:10:01;6.75;;;1.45;;
2187;SDS011;1100;52.014;8.540;2023-10-08T01:12:35;5.17;;;2.10;;
2187;SDS011;1100;52.014;8.540;2023-10-08T01:15:09;5.53;;;1.63;;
2187;SDS011;1100;52.014;8.540;2023-10-08T01:17:48;7.30;;;2.15;;
2187;SDS011;1100;52.014;8.540;2023-10-08T01:20:22;2.40;;;0.60;;
2187;SDS011;1100;52.014;8.540;2023-10-08T01:25:44;1.77;;;0.70;;
2187;SDS011;1100;52.014;8.540;2023-10-08T01:28:16;1.52;;;0.30;;
2187;SDS011;1100;52.014;8.540;2023-10-08T01:30:50;1.10;;;0.30;;
2187;SDS011;1100;52.014;8.540;2023-10-08T01:33:20;0.90;;;0.20;;
2187;SDS011;1100;52.014;8.540;2023-10-08T01:35:47;1.10;;;0.40;;
2187;SDS011;1100;52.014;8.540;2023-10-08T01:38:15;0.90;;;0.30;;
2187;SDS011;1100;52.014;8.540;2023-10-08T01:40:48;0.90;;;0.20;;
2187;SDS011;1100;52.014;8.540;2023-10-08T01:43:16;1.00;;;0.30;;
2187;SDS011;1100;52.014;8.540;2023-10-08T01:45:42;1.02;;;0.30;;
2187;SDS011;1100;52.014;8.540;2023-10-08T01:48:09;0.90;;;0.22;;
2187;SDS011;1100;52.014;8.540;2023-10-08T01:50:35;0.80;;;0.23;;
2187;SDS011;1100;52.014;8.540;2023-10-08T01:53:01;0.90;;;0.20;;
2187;SDS011;1100;52.014;8.540;2023-10-08T01:55:27;1.10;;;0.23;;
2187;SDS011;1100;52.014;8.540;2023-10-08T01:57:55;0.98;;;0.30;;
2187;SDS011;1100;52.014;8.540;2023-10-08T02:00:21;0.95;;;0.25;;
2187;SDS011;1100;52.014;8.540;2023-10-08T02:02:47;0.82;;;0.20;;
2187;SDS011;1100;52.014;8.540;2023-10-08T02:05:15;1.00;;;0.30;;
2187;SDS011;1100;52.014;8.540;2023-10-08T02:07:41;0.90;;;0.20;;
2187;SDS011;1100;52.014;8.540;2023-10-08T02:10:09;0.85;;;0.20;;
2187;SDS011;1100;52.014;8.540;2023-10-08T02:12:36;0.77;;;0.20;;
2187;SDS011;1100;52.014;8.540;2023-10-08T02:15:05;1.10;;;0.30;;
2187;SDS011;1100;52.014;8.540;2023-10-08T02:17:31;0.90;;;0.22;;
2187;SDS011;1100;52.014;8.540;2023-10-08T02:19:57;1.10;;;0.20;;
2187;SDS011;1100;52.014;8.540;2023-10-08T02:22:23;1.00;;;0.30;;
2187;SDS011;1100;52.014;8.540;2023-10-08T02:24:48;0.90;;;0.27;;
2187;SDS011;1100;52.014;8.540;2023-10-08T02:27:15;1.17;;;0.30;;
2187;SDS011;1100;52.014;8.540;2023-10-08T02:29:41;1.10;;;0.30;;
2187;SDS011;1100;52.014;8.540;2023-10-08T02:32:07;0.70;;;0.20;;
2187;SDS011;1100;52.014;8.540;2023-10-08T02:34:33;1.00;;;0.27;;
2187;SDS011;1100;52.014;8.540;2023-10-08T02:36:58;0.90;;;0.20;;
2187;SDS011;1100;52.014;8.540;2023-10-08T02:39:24;1.00;;;0.30;;
2187;SDS011;1100;52.014;8.540;2023-10-08T02:41:51;1.03;;;0.30;;
2187;SDS011;1100;52.014;8.540;2023-10-08T02:44:18;0.90;;;0.20;;
2187;SDS011;1100;52.014;8.540;2023-10-08T02:46:46;1.00;;;0.30;;
2187;SDS011;1100;52.014;8.540;2023-10-08T02:49:17;1.40;;;0.32;;
2187;SDS011;1100;52.014;8.540;2023-10-08T02:51:48;1.08;;;0.30;;
2187;SDS011;1100;52.014;8.540;2023-10-08T02:54:17;1.40;;;0.30;;
2187;SDS011;1100;52.014;8.540;2023-10-08T02:56:48;0.85;;;0.20;;
2187;SDS011;1100;52.014;8.540;2023-10-08T02:59:17;0.93;;;0.22;;
2187;SDS011;1100;52.014;8.540;2023-10-08T03:01:43;0.98;;;0.30;;
2187;SDS011;1100;52.014;8.540;2023-10-08T03:04:09;1.10;;;0.30;;
2187;SDS011;1100;52.014;8.540;2023-10-08T03:06:47;0.85;;;0.20;;
2187;SDS011;1100;52.014;8.540;2023-10-08T03:09:19;1.30;;;0.25;;
2187;SDS011;1100;52.014;8.540;2023-10-08T03:11:50;1.40;;;0.30;;
2187;SDS011;1100;52.014;8.540;2023-10-08T03:14:17;1.45;;;0.30;;
2187;SDS011;1100;52.014;8.540;2023-10-08T03:16:50;1.20;;;0.30;;
2187;SDS011;1100;52.014;8.540;2023-10-08T03:19:17;1.58;;;0.30;;
2187;SDS011;1100;52.014;8.540;2023-10-08T03:21:45;1.50;;;0.40;;
2187;SDS011;1100;52.014;8.540;2023-10-08T03:24:20;0.93;;;0.23;;
2187;SDS011;1100;52.014;8.540;2023-10-08T03:26:58;2.55;;;0.30;;
2187;SDS011;1100;52.014;8.540;2023-10-08T03:29:34;1.13;;;0.30;;
2187;SDS011;1100;52.014;8.540;2023-10-08T03:32:10;1.00;;;0.20;;
2187;SDS011;1100;52.014;8.540;2023-10-08T03:34:44;1.23;;;0.30;;
2187;SDS011;1100;52.014;8.540;2023-10-08T03:37:11;1.40;;;0.30;;
2187;SDS011;1100;52.014;8.540;2023-10-08T03:39:44;2.03;;;0.30;;
2187;SDS011;1100;52.014;8.540;2023-10-08T03:42:22;1.20;;;0.30;;
2187;SDS011;1100;52.014;8.540;2023-10-08T03:44:52;0.90;;;0.20;;
2187;SDS011;1100;52.014;8.540;2023-10-08T03:47:19;2.17;;;0.50;;
2187;SDS011;1100;52.014;8.540;2023-10-08T03:49:47;1.47;;;0.20;;
2187;SDS011;1100;52.014;8.540;2023-10-08T03:52:15;1.40;;;0.45;;
2187;SDS011;1100;52.014;8.540;2023-10-08T03:54:41;1.80;;;0.40;;
2187;SDS011;1100;52.014;8.540;2023-10-08T03:57:12;1.90;;;0.40;;
2187;SDS011;1100;52.014;8.540;2023-10-08T03:59:50;0.98;;;0.20;;
2187;SDS011;1100;52.014;8.540;2023-10-08T04:02:20;1.80;;;0.57;;
2187;SDS011;1100;52.014;8.540;2023-10-08T04:04:57;0.98;;;0.30;;
2187;SDS011;1100;52.014;8.540;2023-10-08T04:07:24;1.23;;;0.30;;
2187;SDS011;1100;52.014;8.540;2023-10-08T04:09:51;1.48;;;0.57;;
2187;SDS011;1100;52.014;8.540;2023-10-08T04:12:38;2.10;;;0.68;;
2187;SDS011;1100;52.014;8.540;2023-10-08T04:15:13;3.63;;;0.30;;
2187;SDS011;1100;52.014;8.540;2023-10-08T04:17:41;6.07;;;0.30;;
2187;SDS011;1100;52.014;8.540;2023-10-08T04:20:13;6.57;;;0.70;;
2187;SDS011;1100;52.014;8.540;2023-10-08T04:22:59;3.60;;;0.35;;
2187;SDS011;1100;52.014;8.540;2023-10-08T04:25:28;2.78;;;0.93;;
2187;SDS011;1100;52.014;8.540;2023-10-08T04:27:55;1.45;;;0.47;;
2187;SDS011;1100;52.014;8.540;2023-10-08T04:30:25;1.77;;;0.30;;
2187;SDS011;1100;52.014;8.540;2023-10-08T04:32:58;1.43;;;0.63;;
2187;SDS011;1100;52.014;8.540;2023-10-08T04:35:36;8.55;;;0.70;;
2187;SDS011;1100;52.014;8.540;2023-10-08T04:38:03;2.30;;;0.40;;
2187;SDS011;1100;52.014;8.540;2023-10-08T04:40:29;1.27;;;0.35;;
2187;SDS011;1100;52.014;8.540;2023-10-08T04:42:58;1.40;;;0.40;;
2187;SDS011;1100;52.014;8.540;2023-10-08T04:45:27;0.73;;;0.20;;
2187;SDS011;1100;52.014;8.540;2023-10-08T04:47:52;5.68;;;0.40;;
2187;SDS011;1100;52.014;8.540;2023-10-08T04:50:19;1.27;;;0.28;;
2187;SDS011;1100;52.014;8.540;2023-10-08T04:52:46;1.77;;;0.53;;
2187;SDS011;1100;52.014;8.540;2023-10-08T04:55:23;1.75;;;0.38;;
2187;SDS011;1100;52.014;8.540;2023-10-08T04:57:53;1.00;;;0.20;;
2187;SDS011;1100;52.014;8.540;2023-10-08T05:00:19;1.15;;;0.20;;
2187;SDS011;1100;52.014;8.540;2023-10-08T05:03:04;2.50;;;0.30;;
2187;SDS011;1100;52.014;8.540;2023-10-08T05:05:38;4.47;;;0.40;;
2187;SDS011;1100;52.014;8.540;2023-10-08T05:08:20;1.73;;;0.30;;
2187;SDS011;1100;52.014;8.540;2023-10-08T05:10:58;1.33;;;0.30;;
2187;SDS011;1100;52.014;8.540;2023-10-08T05:13:40;0.93;;;0.20;;
2187;SDS011;1100;52.014;8.540;2023-10-08T05:16:20;1.73;;;0.50;;
2187;SDS011;1100;52.014;8.540;2023-10-08T05:19:01;1.00;;;0.28;;
2187;SDS011;1100;52.014;8.540;2023-10-08T05:21:49;2.35;;;0.60;;
2187;SDS011;1100;52.014;8.540;2023-10-08T05:24:27;1.20;;;0.30;;
2187;SDS011;1100;52.014;8.540;2023-10-08T05:27:03;1.48;;;0.28;;
2187;SDS011;1100;52.014;8.540;2023-10-08T05:29:48;2.13;;;0.40;;
2187;SDS011;1100;52.014;8.540;2023-10-08T05:32:32;2.40;;;0.60;;
2187;SDS011;1100;52.014;8.540;2023-10-08T05:35:11;1.20;;;0.40;;
2187;SDS011;1100;52.014;8.540;2023-10-08T05:37:57;3.53;;;0.50;;
2187;SDS011;1100;52.014;8.540;2023-10-08T05:40:38;2.45;;;0.47;;
2187;SDS011;1100;52.014;8.540;2023-10-08T05:43:30;2.03;;;0.37;;
2187;SDS011;1100;52.014;8.540;2023-10-08T05:48:50;1.35;;;0.32;;
2187;SDS011;1100;52.014;8.540;2023-10-08T05:51:35;4.00;;;0.40;;
2187;SDS011;1100;52.014;8.540;2023-10-08T05:54:17;2.13;;;0.50;;
2187;SDS011;1100;52.014;8.540;2023-10-08T05:57:00;1.00;;;0.20;;
2187;SDS011;1100;52.014;8.540;2023-10-08T06:02:21;1.45;;;0.40;;
2187;SDS011;1100;52.014;8.540;2023-10-08T06:05:00;1.63;;;0.55;;
2187;SDS011;1100;52.014;8.540;2023-10-08T06:10:18;1.33;;;0.20;;
2187;SDS011;1100;52.014;8.540;2023-10-08T06:13:13;1.48;;;0.25;;
2187;SDS011;1100;52.014;8.540;2023-10-08T06:15:42;1.40;;;0.52;;
2187;SDS011;1100;52.014;8.540;2023-10-08T06:18:13;1.83;;;0.35;;
2187;SDS011;1100;52.014;8.540;2023-10-08T06:20:51;1.13;;;0.30;;
2187;SDS011;1100;52.014;8.540;2023-10-08T06:23:23;1.07;;;0.30;;
2187;SDS011;1100;52.014;8.540;2023-10-08T06:25:50;1.60;;;0.20;;
2187;SDS011;1100;52.014;8.540;2023-10-08T06:28:23;1.48;;;0.40;;
2187;SDS011;1100;52.014;8.540;2023-10-08T06:30:53;1.42;;;0.30;;
2187;SDS011;1100;52.014;8.540;2023-10-08T06:33:22;1.75;;;0.30;;
2187;SDS011;1100;52.014;8.540;2023-10-08T06:36:01;2.40;;;0.77;;
2187;SDS011;1100;52.014;8.540;2023-10-08T06:38:30;1.65;;;0.30;;
2187;SDS011;1100;52.014;8.540;2023-10-08T06:40:57;0.95;;;0.30;;
2187;SDS011;1100;52.014;8.540;2023-10-08T06:43:31;1.63;;;0.50;;
2187;SDS011;1100;52.014;8.540;2023-10-08T06:45:59;1.73;;;0.50;;
2187;SDS011;1100;52.014;8.540;2023-10-08T06:48:25;1.33;;;0.30;;
2187;SDS011;1100;52.014;8.540;2023-10-08T06:50:51;1.70;;;0.50;;
2187;SDS011;1100;52.014;8.540;2023-10-08T06:53:21;2.97;;;0.50;;
2187;SDS011;1100;52.014;8.540;2023-10-08T06:55:47;1.77;;;0.38;;
2187;SDS011;1100;52.014;8.540;2023-10-08T06:58:19;1.80;;;0.30;;
2187;SDS011;1100;52.014;8.540;2023-10-08T07:00:44;1.40;;;0.50;;
2187;SDS011;1100;52.014;8.540;2023-10-08T07:03:17;4.47;;;0.50;;
2187;SDS011;1100;52.014;8.540;2023-10-08T07:05:46;1.53;;;0.30;;
2187;SDS011;1100;52.014;8.540;2023-10-08T07:08:23;3.25;;;0.40;;
2187;SDS011;1100;52.014;8.540;2023-10-08T07:10:53;1.10;;;0.20;;
2187;SDS011;1100;52.014;8.540;2023-10-08T07:13:19;3.88;;;0.35;;
2187;SDS011;1100;52.014;8.540;2023-10-08T07:15:48;1.10;;;0.27;;
2187;SDS011;1100;52.014;8.540;2023-10-08T07:18:14;0.93;;;0.20;;
2187;SDS011;1100;52.014;8.540;2023-10-08T07:20:45;1.27;;;0.32;;
2187;SDS011;1100;52.014;8.540;2023-10-08T07:23:11;1.77;;;0.30;;
2187;SDS011;1100;52.014;8.540;2023-10-08T07:25:55;0.95;;;0.20;;
2187;SDS011;1100;52.014;8.540;2023-10-08T07:28:44;1.80;;;0.40;;
2187;SDS011;1100;52.014;8.540;2023-10-08T07:31:16;1.55;;;0.30;;
2187;SDS011;1100;52.014;8.540;2023-10-08T07:33:46;2.53;;;0.30;;
2187;SDS011;1100;52.014;8.540;2023-10-08T07:36:13;2.47;;;0.50;;
2187;SDS011;1100;52.014;8.540;2023-10-08T07:38:40;1.05;;;0.20;;
2187;SDS011;1100;52.014;8.540;2023-10-08T07:41:11;1.70;;;0.53;;
2187;SDS011;1100;52.014;8.540;2023-10-08T07:43:39;1.73;;;0.40;;
2187;SDS011;1100;52.014;8.540;2023-10-08T07:46:08;1.50;;;0.30;;
2187;SDS011;1100;52.014;8.540;2023-10-08T07:48:34;0.77;;;0.20;;
2187;SDS011;1100;52.014;8.540;2023-10-08T07:51:00;1.90;;;0.73;;
2187;SDS011;1100;52.014;8.540;2023-10-08T07:53:25;1.23;;;0.37;;
2187;SDS011;1100;52.014;8.540;2023-10-08T07:56:02;1.70;;;0.47;;
2187;SDS011;1100;52.014;8.540;2023-10-08T07:58:37;1.17;;;0.30;;
2187;SDS011;1100;52.014;8.540;2023-10-08T08:01:05;1.92;;;0.35;;
2187;SDS011;1100;52.014;8.540;2023-10-08T08:03:35;1.98;;;0.45;;
2187;SDS011;1100;52.014;8.540;2023-10-08T08:06:11;1.07;;;0.27;;
2187;SDS011;1100;52.014;8.540;2023-10-08T08:08:38;1.40;;;0.40;;
2187;SDS011;1100;52.014;8.540;2023-10-08T08:11:04;2.78;;;0.40;;
2187;SDS011;1100;52.014;8.540;2023-10-08T08:13:35;2.53;;;0.22;;
2187;SDS011;1100;52.014;8.540;2023-10-08T08:16:01;1.90;;;0.35;;
2187;SDS011;1100;52.014;8.540;2023-10-08T08:18:41;1.73;;;0.40;;
2187;SDS011;1100;52.014;8.540;2023-10-08T08:21:10;1.55;;;0.35;;
2187;SDS011;1100;52.014;8.540;2023-10-08T08:23:40;1.85;;;0.40;;
2187;SDS011;1100;52.014;8.540;2023-10-08T08:26:06;1.38;;;0.40;;
2187;SDS011;1100;52.014;8.540;2023-10-08T08:28:37;1.25;;;0.40;;
2187;SDS011;1100;52.014;8.540;2023-10-08T08:31:04;1.27;;;0.30;;
2187;SDS011;1100;52.014;8.540;2023-10-08T08:33:38;1.52;;;0.30;;
2187;SDS011;1100;52.014;8.540;2023-10-08T08:36:23;1.35;;;0.30;;
2187;SDS011;1100;52.014;8.540;2023-10-08T08:38:49;1.65;;;0.35;;
2187;SDS011;1100;52.014;8.540;2023-10-08T08:41:16;3.55;;;0.47;;
2187;SDS011;1100;52.014;8.540;2023-10-08T08:43:47;1.10;;;0.30;;
2187;SDS011;1100;52.014;8.540;2023-10-08T08:46:21;3.00;;;0.50;;
2187;SDS011;1100;52.014;8.540;2023-10-08T08:48:52;1.08;;;0.22;;
2187;SDS011;1100;52.014;8.540;2023-10-08T08:51:19;1.58;;;0.40;;
2187;SDS011;1100;52.014;8.540;2023-10-08T08:53:47;2.92;;;0.40;;
2187;SDS011;1100;52.014;8.540;2023-10-08T08:56:12;1.30;;;0.30;;
2187;SDS011;1100;52.014;8.540;2023-10-08T08:58:38;2.87;;;0.30;;
2187;SDS011;1100;52.014;8.540;2023-10-08T09:01:07;1.25;;;0.40;;
2187;SDS011;1100;52.014;8.540;2023-10-08T09:03:37;1.50;;;0.40;;
2187;SDS011;1100;52.014;8.540;2023-10-08T09:06:04;1.65;;;0.52;;
2187;SDS011;1100;52.014;8.540;2023-10-08T09:08:37;1.27;;;0.40;;
2187;SDS011;1100;52.014;8.540;2023-10-08T09:11:06;1.83;;;0.50;;
2187;SDS011;1100;52.014;8.540;2023-10-08T09:13:33;2.03;;;0.60;;
2187;SDS011;1100;52.014;8.540;2023-10-08T09:16:07;1.45;;;0.40;;
2187;SDS011;1100;52.014;8.540;2023-10-08T09:18:36;2.22;;;0.50;;
2187;SDS011;1100;52.014;8.540;2023-10-08T09:21:34;2.07;;;0.30;;
2187;SDS011;1100;52.014;8.540;2023-10-08T09:23:53;1.95;;;0.47;;
2187;SDS011;1100;52.014;8.540;2023-10-08T09:26:23;1.50;;;0.53;;
2187;SDS011;1100;52.014;8.540;2023-10-08T09:28:50;2.35;;;0.50;;
2187;SDS011;1100;52.014;8.540;2023-10-08T09:31:16;3.50;;;0.60;;
2187;SDS011;1100;52.014;8.540;2023-10-08T09:33:54;1.65;;;0.40;;
2187;SDS011;1100;52.014;8.540;2023-10-08T09:36:20;1.50;;;0.40;;
2187;SDS011;1100;52.014;8.540;2023-10-08T09:38:56;1.87;;;0.40;;
2187;SDS011;1100;52.014;8.540;2023-10-08T09:41:32;2.10;;;0.40;;
2187;SDS011;1100;52.014;8.540;2023-10-08T09:43:58;1.92;;;0.40;;
2187;SDS011;1100;52.014;8.540;2023-10-08T09:46:31;1.93;;;0.50;;
2187;SDS011;1100;52.014;8.540;2023-10-08T09:49:01;2.08;;;0.50;;
2187;SDS011;1100;52.014;8.540;2023-10-08T09:51:32;2.08;;;0.68;;
2187;SDS011;1100;52.014;8.540;2023-10-08T09:56:39;1.67;;;0.30;;
2187;SDS011;1100;52.014;8.540;2023-10-08T09:59:05;2.47;;;0.40;;
2187;SDS011;1100;52.014;8.540;2023-10-08T10:01:34;2.13;;;0.40;;
2187;SDS011;1100;52.014;8.540;2023-10-08T10:04:05;2.40;;;0.60;;
2187;SDS011;1100;52.014;8.540;2023-10-08T10:06:34;2.85;;;0.35;;
2187;SDS011;1100;52.014;8.540;2023-10-08T10:09:01;4.60;;;0.75;;
2187;SDS011;1100;52.014;8.540;2023-10-08T10:11:31;1.40;;;0.50;;
2187;SDS011;1100;52.014;8.540;2023-10-08T10:14:00;1.88;;;0.35;;
2187;SDS011;1100;52.014;8.540;2023-10-08T10:16:28;3.00;;;0.50;;
2187;SDS011;1100;52.014;8.540;2023-10-08T10:18:56;2.63;;;0.40;;
2187;SDS011;1100;52.014;8.540;2023-10-08T10:21:32;3.08;;;0.70;;
2187;SDS011;1100;52.014;8.540;2023-10-08T10:23:58;1.38;;;0.38;;
2187;SDS011;1100;52.014;8.540;2023-10-08T10:26:28;1.48;;;0.35;;
2187;SDS011;1100;52.014;8.540;2023-10-08T10:29:32;6.37;;;0.70;;
2187;SDS011;1100;52.014;8.540;2023-10-08T10:31:51;1.63;;;0.55;;
2187;SDS011;1100;52.014;8.540;2023-10-08T10:34:26;2.72;;;0.40;;
2187;SDS011;1100;52.014;8.540;2023-10-08T10:36:52;2.00;;;0.50;;
2187;SDS011;1100;52.014;8.540;2023-10-08T10:39:22;2.08;;;0.50;;
2187;SDS011;1100;52.014;8.540;2023-10-08T10:41:59;1.60;;;0.43;;
2187;SDS011;1100;52.014;8.540;2023-10-08T10:44:31;1.65;;;0.40;;
2187;SDS011;1100;52.014;8.540;2023-10-08T10:46:57;2.00;;;0.60;;
2187;SDS011;1100;52.014;8.540;2023-10-08T10:49:43;2.65;;;0.60;;
2187;SDS011;1100;52.014;8.540;2023-10-08T10:52:20;2.50;;;0.60;;
2187;SDS011;1100;52.014;8.540;2023-10-08T10:55:08;3.20;;;0.40;;
2187;SDS011;1100;52.014;8.540;2023-10-08T10:57:43;1.52;;;0.38;;
2187;SDS011;1100;52.014;8.540;2023-10-08T11:00:21;5.35;;;0.70;;
2187;SDS011;1100;52.014;8.540;2023-10-08T11:02:57;2.92;;;0.60;;
2187;SDS011;1100;52.014;8.540;2023-10-08T11:05:43;2.20;;;0.55;;
2187;SDS011;1100;52.014;8.540;2023-10-08T11:08:16;2.07;;;0.40;;
2187;SDS011;1100;52.014;8.540;2023-10-08T11:10:44;3.35;;;0.40;;
2187;SDS011;1100;52.014;8.540;2023-10-08T11:13:15;1.13;;;0.30;;
2187;SDS011;1100;52.014;8.540;2023-10-08T11:15:42;3.78;;;0.40;;
2187;SDS011;1100;52.014;8.540;2023-10-08T11:18:13;3.72;;;0.50;;
2187;SDS011;1100;52.014;8.540;2023-10-08T11:20:40;1.73;;;0.40;;
2187;SDS011;1100;52.014;8.540;2023-10-08T11:23:09;1.77;;;0.40;;
2187;SDS011;1100;52.014;8.540;2023-10-08T11:25:54;2.08;;;0.40;;
2187;SDS011;1100;52.014;8.540;2023-10-08T11:28:19;2.80;;;0.47;;
2187;SDS011;1100;52.014;8.540;2023-10-08T11:30:45;2.93;;;0.80;;
2187;SDS011;1100;52.014;8.540;2023-10-08T11:33:12;2.50;;;0.88;;
2187;SDS011;1100;52.014;8.540;2023-10-08T11:35:54;2.05;;;0.40;;
2187;SDS011;1100;52.014;8.540;2023-10-08T11:38:41;4.32;;;0.60;;
2187;SDS011;1100;52.014;8.540;2023-10-08T11:41:13;1.57;;;0.50;;
2187;SDS011;1100;52.014;8.540;2023-10-08T11:43:46;2.53;;;0.47;;
2187;SDS011;1100;52.014;8.540;2023-10-08T11:46:19;1.40;;;0.40;;
2187;SDS011;1100;52.014;8.540;2023-10-08T11:48:46;3.50;;;0.95;;
2187;SDS011;1100;52.014;8.540;2023-10-08T11:51:12;1.97;;;0.67;;
2187;SDS011;1100;52.014;8.540;2023-10-08T11:53:41;1.58;;;0.40;;
2187;SDS011;1100;52.014;8.540;2023-10-08T11:56:09;2.45;;;0.63;;
2187;SDS011;1100;52.014;8.540;2023-10-08T11:58:38;2.13;;;0.60;;
2187;SDS011;1100;52.014;8.540;2023-10-08T12:01:09;2.47;;;0.60;;
2187;SDS011;1100;52.014;8.540;2023-10-08T12:03:40;2.03;;;0.60;;
2187;SDS011;1100;52.014;8.540;2023-10-08T12:06:15;2.08;;;0.50;;
2187;SDS011;1100;52.014;8.540;2023-10-08T12:08:43;2.70;;;0.63;;
2187;SDS011;1100;52.014;8.540;2023-10-08T12:11:12;1.88;;;0.50;;
2187;SDS011;1100;52.014;8.540;2023-10-08T12:13:39;1.63;;;0.40;;
2187;SDS011;1100;52.014;8.540;2023-10-08T12:16:09;1.75;;;0.38;;
2187;SDS011;1100;52.014;8.540;2023-10-08T12:18:42;1.67;;;0.40;;
2187;SDS011;1100;52.014;8.540;2023-10-08T12:21:09;2.03;;;0.50;;
2187;SDS011;1100;52.014;8.540;2023-10-08T12:23:40;2.67;;;0.50;;
2187;SDS011;1100;52.014;8.540;2023-10-08T12:26:08;1.52;;;0.45;;
2187;SDS011;1100;52.014;8.540;2023-10-08T12:28:33;2.88;;;0.70;;
2187;SDS011;1100;52.014;8.540;2023-10-08T12:30:59;6.50;;;0.50;;
2187;SDS011;1100;52.014;8.540;2023-10-08T12:33:25;2.25;;;0.60;;
2187;SDS011;1100;52.014;8.540;2023-10-08T12:35:51;2.53;;;0.70;;
2187;SDS011;1100;52.014;8.540;2023-10-08T12:38:30;2.80;;;0.80;;
2187;SDS011;1100;52.014;8.540;2023-10-08T12:40:56;3.88;;;0.50;;
2187;SDS011;1100;52.014;8.540;2023-10-08T12:43:24;2.25;;;0.80;;
2187;SDS011;1100;52.014;8.540;2023-10-08T12:45:52;3.58;;;0.70;;
2187;SDS011;1100;52.014;8.540;2023-10-08T12:48:20;1.70;;;0.50;;
2187;SDS011;1100;52.014;8.540;2023-10-08T12:50:49;2.80;;;0.40;;
2187;SDS011;1100;52.014;8.540;2023-10-08T12:53:21;3.38;;;0.70;;
2187;SDS011;1100;52.014;8.540;2023-10-08T12:55:58;2.22;;;0.73;;
2187;SDS011;1100;52.014;8.540;2023-10-08T12:58:31;3.38;;;0.82;;
2187;SDS011;1100;52.014;8.540;2023-10-08T13:01:03;1.70;;;0.60;;
2187;SDS011;1100;52.014;8.540;2023-10-08T13:03:31;1.63;;;0.45;;
2187;SDS011;1100;52.014;8.540;2023-10-08T13:05:58;4.22;;;0.60;;
2187;SDS011;1100;52.014;8.540;2023-10-08T13:08:32;2.00;;;0.60;;
2187;SDS011;1100;52.014;8.540;2023-10-08T13:11:00;4.28;;;0.50;;
2187;SDS011;1100;52.014;8.540;2023-10-08T13:13:29;2.30;;;0.53;;
2187;SDS011;1100;52.014;8.540;2023-10-08T13:15:57;2.97;;;0.50;;
2187;SDS011;1100;52.014;8.540;2023-10-08T13:18:25;5.05;;;0.73;;
2187;SDS011;1100;52.014;8.540;2023-10-08T13:20:53;2.67;;;0.52;;
2187;SDS011;1100;52.014;8.540;2023-10-08T13:23:19;2.83;;;0.70;;
2187;SDS011;1100;52.014;8.540;2023-10-08T13:25:51;1.70;;;0.45;;
2187;SDS011;1100;52.014;8.540;2023-10-08T13:28:23;1.92;;;0.50;;
2187;SDS011;1100;52.014;8.540;2023-10-08T13:30:51;4.43;;;0.47;;
2187;SDS011;1100;52.014;8.540;2023-10-08T13:33:21;1.77;;;0.50;;
2187;SDS011;1100;52.014;8.540;2023-10-08T13:35:50;1.43;;;0.47;;
2187;SDS011;1100;52.014;8.540;2023-10-08T13:38:16;2.25;;;0.57;;
2187;SDS011;1100;52.014;8.540;2023-10-08T13:40:44;2.25;;;0.50;;
2187;SDS011;1100;52.014;8.540;2023-10-08T13:43:27;2.75;;;0.55;;
2187;SDS011;1100;52.014;8.540;2023-10-08T13:46:08;1.90;;;0.40;;
2187;SDS011;1100;52.014;8.540;2023-10-08T13:48:38;2.33;;;0.60;;
2187;SDS011;1100;52.014;8.540;2023-10-08T13:51:04;4.80;;;0.70;;
2187;SDS011;1100;52.014;8.540;2023-10-08T13:53:36;2.13;;;0.30;;
2187;SDS011;1100;52.014;8.540;2023-10-08T13:56:02;2.60;;;0.60;;
2187;SDS011;1100;52.014;8.540;2023-10-08T13:58:32;1.98;;;0.50;;
2187;SDS011;1100;52.014;8.540;2023-10-08T14:01:05;2.20;;;0.40;;
2187;SDS011;1100;52.014;8.540;2023-10-08T14:03:43;2.50;;;0.43;;
2187;SDS011;1100;52.014;8.540;2023-10-08T14:06:08;4.40;;;0.73;;
2187;SDS011;1100;52.014;8.540;2023-10-08T14:08:34;1.83;;;0.60;;
2187;SDS011;1100;52.014;8.540;2023-10-08T14:11:00;2.23;;;0.50;;
2187;SDS011;1100;52.014;8.540;2023-10-08T14:13:29;2.10;;;0.60;;
2187;SDS011;1100;52.014;8.540;2023-10-08T14:15:56;2.53;;;0.40;;
2187;SDS011;1100;52.014;8.540;2023-10-08T14:18:22;3.10;;;0.40;;
2187;SDS011;1100;52.014;8.540;2023-10-08T14:20:53;1.63;;;0.40;;
2187;SDS011;1100;52.014;8.540;2023-10-08T14:23:22;4.32;;;0.95;;
2187;SDS011;1100;52.014;8.540;2023-10-08T14:25:50;1.57;;;0.40;;
2187;SDS011;1100;52.014;8.540;2023-10-08T14:28:17;3.13;;;0.50;;
2187;SDS011;1100;52.014;8.540;2023-10-08T14:31:05;5.72;;;0.52;;
2187;SDS011;1100;52.014;8.540;2023-10-08T14:33:30;4.68;;;0.85;;
2187;SDS011;1100;52.014;8.540;2023-10-08T14:36:06;1.93;;;0.67;;
2187;SDS011;1100;52.014;8.540;2023-10-08T14:38:50;3.50;;;0.50;;
2187;SDS011;1100;52.014;8.540;2023-10-08T14:41:34;1.90;;;0.40;;
2187;SDS011;1100;52.014;8.540;2023-10-08T14:44:18;2.83;;;0.50;;
2187;SDS011;1100;52.014;8.540;2023-10-08T14:46:44;2.23;;;0.67;;
2187;SDS011;1100;52.014;8.540;2023-10-08T14:49:09;2.00;;;0.53;;
2187;SDS011;1100;52.014;8.540;2023-10-08T14:51:36;1.83;;;0.38;;
2187;SDS011;1100;52.014;8.540;2023-10-08T14:54:02;3.20;;;0.50;;
2187;SDS011;1100;52.014;8.540;2023-10-08T14:56:28;1.57;;;0.43;;
2187;SDS011;1100;52.014;8.540;2023-10-08T14:58:57;1.48;;;0.30;;
2187;SDS011;1100;52.014;8.540;2023-10-08T15:01:23;1.57;;;0.40;;
2187;SDS011;1100;52.014;8.540;2023-10-08T15:03:50;1.65;;;0.40;;
2187;SDS011;1100;52.014;8.540;2023-10-08T15:06:17;2.72;;;0.70;;
2187;SDS011;1100;52.014;8.540;2023-10-08T15:08:44;3.55;;;0.60;;
2187;SDS011;1100;52.014;8.540;2023-10-08T15:11:09;3.90;;;1.00;;
2187;SDS011;1100;52.014;8.540;2023-10-08T15:13:35;2.70;;;0.70;;
2187;SDS011;1100;52.014;8.540;2023-10-08T15:19:25;2.55;;;0.77;;
2187;SDS011;1100;52.014;8.540;2023-10-08T15:21:51;2.00;;;0.60;;
2187;SDS011;1100;52.014;8.540;2023-10-08T15:24:17;3.37;;;1.20;;
2187;SDS011;1100;52.014;8.540;2023-10-08T15:26:53;2.72;;;0.90;;
2187;SDS011;1100;52.014;8.540;2023-10-08T15:29:19;2.00;;;0.55;;
2187;SDS011;1100;52.014;8.540;2023-10-08T15:31:46;2.63;;;0.52;;
2187;SDS011;1100;52.014;8.540;2023-10-08T15:34:12;1.87;;;0.40;;
2187;SDS011;1100;52.014;8.540;2023-10-08T15:36:38;2.75;;;0.68;;
2187;SDS011;1100;52.014;8.540;2023-10-08T15:39:04;2.42;;;0.50;;
2187;SDS011;1100;52.014;8.540;2023-10-08T15:41:30;2.60;;;0.88;;
2187;SDS011;1100;52.014;8.540;2023-10-08T15:43:55;1.90;;;0.60;;
2187;SDS011;1100;52.014;8.540;2023-10-08T15:46:23;1.98;;;0.40;;
2187;SDS011;1100;52.014;8.540;2023-10-08T15:48:51;1.83;;;0.50;;
2187;SDS011;1100;52.014;8.540;2023-10-08T15:51:17;3.00;;;0.50;;
2187;SDS011;1100;52.014;8.540;2023-10-08T15:53:42;3.40;;;0.60;;
2187;SDS011;1100;52.014;8.540;2023-10-08T15:56:08;3.37;;;0.57;;